This is the latest recevied weather packets stored in our database for station/object VK3MAK-1. If no packets are shown the sender has not sent any weather packets the latest 10 day(s).
| Time | Temp. | Humidity | Pressure | Rain* | Wind** | Luminosity | Snow |
|---|---|---|---|---|---|---|---|
| 1777681804 | 21.11° C | 43% | 1015.2 hPa | 0 mm | 6.71 m/s, 23° | - | - |
| 1777681204 | 21.11° C | 43% | 1015.2 hPa | 0 mm | 6.71 m/s, 23° | - | - |
| 1777680604 | 21.11° C | 43% | 1015.2 hPa | 0 mm | 6.71 m/s, 23° | - | - |
| 1777680003 | 20° C | 47% | 1015.3 hPa | 0 mm | 5.81 m/s, 23° | - | - |
| 1777679404 | 20° C | 47% | 1015.3 hPa | 0 mm | 5.81 m/s, 23° | - | - |
| 1777678804 | 20° C | 47% | 1015.3 hPa | 0 mm | 5.81 m/s, 23° | - | - |
| 1777678204 | 18.89° C | 49% | 1015.7 hPa | 0 mm | 5.36 m/s, 23° | - | - |
| 1777677603 | 18.89° C | 49% | 1015.7 hPa | 0 mm | 5.36 m/s, 23° | - | - |
| 1777677003 | 18.89° C | 49% | 1015.7 hPa | 0 mm | 5.36 m/s, 23° | - | - |
| 1777676404 | 17.78° C | 52% | 1015.7 hPa | 0 mm | 3.13 m/s, 23° | - | - |
| 1777675804 | 17.78° C | 52% | 1015.7 hPa | 0 mm | 3.13 m/s, 23° | - | - |
| 1777675204 | 17.78° C | 52% | 1015.7 hPa | 0 mm | 3.13 m/s, 23° | - | - |
| 1777674604 | 17.22° C | 53% | 1015.8 hPa | 0 mm | 2.68 m/s, 23° | - | - |
| 1777674005 | 17.22° C | 53% | 1015.8 hPa | 0 mm | 2.68 m/s, 23° | - | - |
| 1777673404 | 17.22° C | 53% | 1015.8 hPa | 0 mm | 2.68 m/s, 23° | - | - |
| 1777672804 | 16.67° C | 53% | 1015.9 hPa | 0 mm | 3.13 m/s, 0° | - | - |
| 1777672204 | 16.67° C | 53% | 1015.9 hPa | 0 mm | 3.13 m/s, 0° | - | - |
| 1777671604 | 16.67° C | 53% | 1015.9 hPa | 0 mm | 3.13 m/s, 0° | - | - |
| 1777671003 | 16.67° C | 53% | 1015.7 hPa | 0 mm | 3.58 m/s, 23° | - | - |
| 1777670404 | 16.67° C | 53% | 1015.7 hPa | 0 mm | 3.58 m/s, 23° | - | - |
| 1777669804 | 16.67° C | 53% | 1015.7 hPa | 0 mm | 3.58 m/s, 23° | - | - |
| 1777669204 | 16.67° C | 53% | 1015.5 hPa | 0 mm | 4.02 m/s, 45° | - | - |
| 1777668604 | 16.67° C | 53% | 1015.5 hPa | 0 mm | 4.02 m/s, 45° | - | - |
| 1777668004 | 16.67° C | 53% | 1015.5 hPa | 0 mm | 4.02 m/s, 45° | - | - |
| 1777667403 | 15° C | 62% | 1015.5 hPa | 0 mm | 3.13 m/s, 23° | - | - |
* Rain latest hour (hover to see other rain measurements)
** Current wind speed in m/s (hover to see current wind gust speed)